Terminal Aerodrome Forecast
Issued by NWS

Home | Current Version | Previous Version | Graphics & Text | Print | Product List | Glossary On
Versions: 1 2 3 4 5 6 7 8 9 10 11 12
663
FTUS43 KICT 192330
TAFCNU
TAF
KCNU 192330Z 2000/2024 18018G27KT P6SM FEW250
     FM200100 18014KT P6SM FEW250
     FM200300 19013KT P6SM SCT250 WS020/21045KT
     FM200900 19013KT P6SM SCT015
     FM201500 21014KT P6SM FEW250
     FM201800 18006KT P6SM FEW250
     FM202100 12006KT P6SM FEW250=

USA.gov is the U.S. government's official web portal to all federal, state and local government web resources and services.